Time;durP1;ratioP1;P1;durP2;ratioP2;P2;SDS_P1;SDS_P2;PMS_P1;PMS_P2;Temp;Humidity;BMP_temperature;BMP_pressure;BME280_temperature;BME280_humidity;BME280_pressure;Samples;Min_cycle;Max_cycle;Signal;HPM_P1;HPM_P2
2023/03/12 00:00:33;;;;;;;;;;;;;;;-144.99;100.00;52533.69;5045666;28;20012;-76
2023/03/12 00:03:01;;;;;;;;;;;;;;;-144.99;100.00;52545.94;5044901;28;21509;-77
2023/03/12 00:05:42;;;;;;;;;;;;;;;-144.99;100.00;52550.00;5046961;28;20410;-77
2023/03/12 00:08:09;;;;;;;;;;;;;;;-144.99;100.00;52539.81;5039455;28;19940;-75
2023/03/12 00:10:35;;;;;;;;;;;;;;;-144.99;100.00;52533.69;5028454;28;20100;-78
2023/03/12 00:13:02;;;;;;;;;;;;;;;-144.99;100.00;52554.09;5030300;28;19942;-77
2023/03/12 00:15:53;;;;;;;;;;;;;;;-144.99;100.00;52556.13;5032112;28;20202;-77
2023/03/12 00:18:21;;;;;;;;;;;;;;;-144.99;100.00;52537.78;5033370;28;19971;-76
2023/03/12 00:20:53;;;;;;;;;;;;;;;-144.99;100.00;52566.31;4678803;28;10000274;-78
2023/03/12 00:23:19;;;;;;;;;;;;;;;-144.99;100.00;52517.41;5039636;28;20336;-78
2023/03/12 00:25:46;;;;;;;;;;;;;;;-144.99;100.00;52541.84;5023257;28;19961;-77
2023/03/12 00:28:12;;;;;;;;;;;;;;;-144.99;100.00;52552.03;5031795;28;19998;-78
2023/03/12 00:30:39;;;;;;;;;;;;;;;-144.99;100.00;52550.00;5031269;28;19965;-78
2023/03/12 00:33:06;;;;;;;;;;;;;;;-144.99;100.00;52564.28;5035342;28;19927;-78
2023/03/12 00:35:33;;;;;;;;;;;;;;;-144.99;100.00;52517.41;5054936;28;19948;-79
2023/03/12 00:38:00;;;;;;;;;;;;;;;-144.99;100.00;52582.63;5059695;28;19943;-78
2023/03/12 00:40:26;;;;;;;;;;;;;;;-144.99;100.00;52527.59;5057392;28;19953;-79
2023/03/12 00:42:53;;;;;;;;;;;;;;;-144.99;100.00;52556.13;5060718;28;19923;-78
2023/03/12 00:45:55;;;;;;;;;;;;;;;-144.99;100.00;52556.13;5063410;28;19972;-79
2023/03/12 00:48:22;;;;;;;;;;;;;;;-144.99;100.00;52533.69;5050281;28;19939;-79
2023/03/12 00:50:49;;;;;;;;;;;;;;;-144.99;100.00;52570.38;5061095;28;19958;-80
2023/03/12 00:53:16;;;;;;;;;;;;;;;-144.99;100.00;52582.63;5059289;28;19963;-77
2023/03/12 00:55:42;;;;;;;;;;;;;;;-144.99;100.00;52552.03;5073762;28;19940;-78
2023/03/12 00:58:09;;;;;;;;;;;;;;;-144.99;100.00;52568.34;5064822;28;19933;-78
2023/03/12 01:00:53;;;;;;;;;;;;;;;-144.99;100.00;52554.09;5059766;28;19940;-79
2023/03/12 01:03:20;;;;;;;;;;;;;;;-144.99;100.00;52562.25;5059840;28;19958;-77
2023/03/12 01:05:52;;;;;;;;;;;;;;;-144.99;100.00;52550.00;5058574;28;19949;-80
2023/03/12 01:08:20;;;;;;;;;;;;;;;-144.99;100.00;52566.31;5056915;28;19947;-79
2023/03/12 01:10:47;;;;;;;;;;;;;;;-144.99;100.00;52533.69;5056660;22;19989;-68
2023/03/12 01:13:14;;;;;;;;;;;;;;;-144.99;100.00;52550.00;5050916;28;19997;-69
2023/03/12 01:16:00;;;;;;;;;;;;;;;-144.99;100.00;52554.09;5045068;28;19961;-68
2023/03/12 01:18:26;;;;;;;;;;;;;;;-144.99;100.00;52550.00;5030068;28;19939;-68
2023/03/12 01:20:53;;;;;;;;;;;;;;;-144.99;100.00;52562.25;5031025;28;19995;-73
2023/03/12 01:23:21;;;;;;;;;;;;;;;-144.99;100.00;52533.69;5031375;28;19939;-69
2023/03/12 01:25:48;;;;;;;;;;;;;;;-144.99;100.00;52513.31;5030680;28;20345;-68
2023/03/12 01:28:15;;;;;;;;;;;;;;;-144.99;100.00;52525.56;5045358;28;19937;-70
2023/03/12 01:30:41;;;;;;;;;;;;;;;-144.99;100.00;52550.00;5036770;28;19961;-70
2023/03/12 01:33:08;;;;;;;;;;;;;;;-144.99;100.00;52554.09;5029675;28;19962;-72
2023/03/12 01:35:36;;;;;;;;;;;;;;;-144.99;100.00;52545.94;5028178;28;19962;-71
2023/03/12 01:38:02;;;;;;;;;;;;;;;-144.99;100.00;52529.63;5028359;28;19957;-70
2023/03/12 01:40:32;;;;;;;;;;;;;;;-144.99;100.00;52545.94;5029360;28;19950;-70
2023/03/12 01:42:59;;;;;;;;;;;;;;;-144.99;100.00;52554.09;5030150;28;19961;-71
2023/03/12 01:45:44;;;;;;;;;;;;;;;-144.99;100.00;52554.09;5029073;28;20324;-71
2023/03/12 01:48:11;;;;;;;;;;;;;;;-144.99;100.00;52552.03;5026543;28;19945;-71
2023/03/12 01:50:37;;;;;;;;;;;;;;;-144.99;100.00;52541.84;5038177;28;19964;-73
2023/03/12 01:53:05;;;;;;;;;;;;;;;-144.99;100.00;52525.56;5024162;28;19945;-70
2023/03/12 01:55:32;;;;;;;;;;;;;;;-144.99;100.00;52578.53;5027369;28;20013;-71
2023/03/12 01:58:01;;;;;;;;;;;;;;;-144.99;100.00;52566.31;5035316;28;20468;-70
2023/03/12 02:00:28;;;;;;;;;;;;;;;-144.99;100.00;52574.47;5031478;28;19942;-71
2023/03/12 02:03:00;;;;;;;;;;;;;;;-144.99;100.00;52533.69;5030597;28;20199;-71
2023/03/12 02:05:28;;;;;;;;;;;;;;;-144.99;100.00;52560.19;5024430;28;20013;-71
2023/03/12 02:07:56;;;;;;;;;;;;;;;-144.99;100.00;52564.28;5026343;28;19945;-71
2023/03/12 02:10:22;;;;;;;;;;;;;;;-144.99;100.00;52550.00;5032682;28;19999;-71
2023/03/12 02:12:51;;;;;;;;;;;;;;;-144.99;100.00;52554.09;5037520;28;19940;-71
2023/03/12 02:15:17;;;;;;;;;;;;;;;-144.99;100.00;52543.91;5036876;28;20013;-71
2023/03/12 02:17:44;;;;;;;;;;;;;;;-144.99;100.00;52570.38;5036277;28;19939;-71
2023/03/12 02:20:15;;;;;;;;;;;;;;;-144.99;100.00;52558.16;5027906;28;19963;-72
2023/03/12 02:22:44;;;;;;;;;;;;;;;-144.99;100.00;52554.09;5037647;28;19936;-71
2023/03/12 02:25:19;;;;;;;;;;;;;;;-144.99;100.00;52545.94;5029207;28;20059;-71
2023/03/12 02:27:46;;;;;;;;;;;;;;;-144.99;100.00;52541.84;5030661;28;19999;-71
2023/03/12 02:30:14;;;;;;;;;;;;;;;-144.99;100.00;52552.03;5029409;28;19954;-71
2023/03/12 02:32:42;;;;;;;;;;;;;;;-144.99;100.00;52539.81;5024069;28;20392;-72
2023/03/12 02:35:09;;;;;;;;;;;;;;;-144.99;100.00;52574.47;5021855;28;19968;-72
2023/03/12 02:37:47;;;;;;;;;;;;;;;-144.99;100.00;52562.25;5036120;28;23410;-72
2023/03/12 02:40:17;;;;;;;;;;;;;;;-144.99;100.00;52560.19;5025553;28;20056;-72
2023/03/12 02:42:45;;;;;;;;;;;;;;;-144.99;100.00;52554.09;5034316;28;19950;-73
2023/03/12 02:45:12;;;;;;;;;;;;;;;-144.99;100.00;52554.09;5025398;28;20011;-72
2023/03/12 02:47:38;;;;;;;;;;;;;;;-144.99;100.00;52566.31;5028815;28;19942;-73
2023/03/12 02:50:06;;;;;;;;;;;;;;;-144.99;100.00;52505.16;5018975;28;19966;-73
2023/03/12 02:52:35;;;;;;;;;;;;;;;-144.99;100.00;52550.00;5031174;28;19948;-71
2023/03/12 02:55:01;;;;;;;;;;;;;;;-144.99;100.00;52533.69;5034990;28;20023;-71
2023/03/12 02:57:28;;;;;;;;;;;;;;;-144.99;100.00;52554.09;5035009;28;19968;-71
2023/03/12 02:59:56;;;;;;;;;;;;;;;-144.99;100.00;52531.66;5028183;28;20366;-71
2023/03/12 03:02:23;;;;;;;;;;;;;;;-144.99;100.00;52562.25;5031813;28;19972;-74
2023/03/12 03:04:49;;;;;;;;;;;;;;;-144.99;100.00;52550.00;5027543;28;19955;-72
2023/03/12 03:07:16;;;;;;;;;;;;;;;-144.99;100.00;52554.09;5028701;28;19984;-71
2023/03/12 03:09:42;;;;;;;;;;;;;;;-144.99;100.00;52562.25;5027332;28;19929;-71
2023/03/12 03:12:12;;;;;;;;;;;;;;;-144.99;100.00;52513.31;5028385;28;19997;-68
2023/03/12 03:14:38;;;;;;;;;;;;;;;-144.99;100.00;52547.97;5033214;28;19984;-68
2023/03/12 03:17:06;;;;;;;;;;;;;;;-144.99;100.00;52527.59;5052917;28;19930;-68
2023/03/12 03:19:33;;;;;;;;;;;;;;;-144.99;100.00;52509.25;5040608;28;20011;-70
2023/03/12 03:21:59;;;;;;;;;;;;;;;-144.99;100.00;52537.78;5031976;28;19951;-68
2023/03/12 03:24:26;;;;;;;;;;;;;;;-144.99;100.00;52497.00;5028875;28;19961;-68
2023/03/12 03:26:53;;;;;;;;;;;;;;;-144.99;100.00;52566.31;5041167;28;19946;-68
2023/03/12 03:29:19;;;;;;;;;;;;;;;-144.99;100.00;52586.69;5032782;28;20128;-68
2023/03/12 03:31:46;;;;;;;;;;;;;;;-144.99;100.00;52566.31;5034734;28;20312;-68
2023/03/12 03:34:14;;;;;;;;;;;;;;;-144.99;100.00;52537.78;5031373;28;19989;-68
2023/03/12 03:36:40;;;;;;;;;;;;;;;-144.99;100.00;52566.31;5026832;28;20359;-68
2023/03/12 03:39:07;;;;;;;;;;;;;;;-144.99;100.00;52537.78;5027486;28;19964;-69
2023/03/12 03:41:33;;;;;;;;;;;;;;;-144.99;100.00;52517.41;5043920;28;20403;-70
2023/03/12 03:44:00;;;;;;;;;;;;;;;-144.99;100.00;52566.31;5037578;28;19952;-67
2023/03/12 03:46:27;;;;;;;;;;;;;;;-144.99;100.00;52558.16;5034180;28;19947;-68
2023/03/12 03:48:53;;;;;;;;;;;;;;;-144.99;100.00;52554.09;5034259;28;19935;-68
2023/03/12 03:51:21;;;;;;;;;;;;;;;-144.99;100.00;52554.09;5033531;28;20392;-68
2023/03/12 03:53:48;;;;;;;;;;;;;;;-144.99;100.00;52560.19;5029429;28;19982;-68
2023/03/12 03:56:15;;;;;;;;;;;;;;;-144.99;100.00;52519.44;5036022;28;19954;-68
2023/03/12 03:58:42;;;;;;;;;;;;;;;-144.99;100.00;52574.47;5033981;28;19944;-67
2023/03/12 04:01:09;;;;;;;;;;;;;;;-144.99;100.00;52545.94;5040605;28;20420;-68
2023/03/12 04:03:35;;;;;;;;;;;;;;;-144.99;100.00;52533.69;5036527;28;19943;-67
2023/03/12 04:06:03;;;;;;;;;;;;;;;-144.99;100.00;52545.94;5071002;28;19990;-68
2023/03/12 04:08:34;;;;;;;;;;;;;;;-144.99;100.00;52529.63;5052696;28;19989;-70
2023/03/12 04:11:06;;;;;;;;;;;;;;;-144.99;100.00;52564.28;5053571;28;19959;-70
2023/03/12 04:13:33;;;;;;;;;;;;;;;-144.99;100.00;52541.84;5054812;28;19927;-72
2023/03/12 04:15:59;;;;;;;;;;;;;;;-144.99;100.00;52558.16;5061801;28;20441;-72
2023/03/12 04:18:26;;;;;;;;;;;;;;;-144.99;100.00;52566.31;5058005;28;20008;-71
2023/03/12 04:20:52;;;;;;;;;;;;;;;-144.99;100.00;52580.59;5060507;28;19941;-71
2023/03/12 04:23:19;;;;;;;;;;;;;;;-144.99;100.00;52562.25;5056252;28;19926;-72
2023/03/12 04:25:47;;;;;;;;;;;;;;;-144.99;100.00;52545.94;5055166;28;20324;-73
2023/03/12 04:28:13;;;;;;;;;;;;;;;-144.99;100.00;52541.84;5062872;28;19956;-71
2023/03/12 04:30:40;;;;;;;;;;;;;;;-144.99;100.00;52543.91;5057224;28;19953;-71
2023/03/12 04:33:07;;;;;;;;;;;;;;;-144.99;100.00;52545.94;5051016;28;19944;-71
2023/03/12 04:35:34;;;;;;;;;;;;;;;-144.99;100.00;52558.16;5042912;28;19944;-71
2023/03/12 04:38:01;;;;;;;;;;;;;;;-144.99;100.00;52533.69;5051683;28;19939;-70
2023/03/12 04:40:27;;;;;;;;;;;;;;;-144.99;100.00;52550.00;5061996;28;19939;-68
2023/03/12 04:42:55;;;;;;;;;;;;;;;-144.99;100.00;52545.94;5049191;28;19943;-68
2023/03/12 04:45:22;;;;;;;;;;;;;;;-144.99;100.00;52562.25;5045069;28;19959;-67
2023/03/12 04:47:48;;;;;;;;;;;;;;;-144.99;100.00;52517.41;5046863;28;19931;-67
2023/03/12 04:50:15;;;;;;;;;;;;;;;-144.99;100.00;52582.63;5049671;28;19973;-70
2023/03/12 04:52:41;;;;;;;;;;;;;;;-144.99;100.00;52521.47;5047378;28;20468;-68
2023/03/12 04:55:08;;;;;;;;;;;;;;;-144.99;100.00;52541.84;5051842;28;20007;-70
2023/03/12 04:57:35;;;;;;;;;;;;;;;-144.99;100.00;52503.13;5049711;28;20365;-68
2023/03/12 05:00:04;;;;;;;;;;;;;;;-144.99;100.00;52537.78;5054086;28;19990;-68
2023/03/12 05:02:30;;;;;;;;;;;;;;;-144.99;100.00;52533.69;5052394;28;19946;-70
2023/03/12 05:04:57;;;;;;;;;;;;;;;-144.99;100.00;52529.63;5042222;28;20443;-69
2023/03/12 05:07:23;;;;;;;;;;;;;;;-144.99;100.00;52541.84;5037820;28;19943;-68
2023/03/12 05:09:50;;;;;;;;;;;;;;;-144.99;100.00;52550.00;5037537;28;19951;-69
2023/03/12 05:12:17;;;;;;;;;;;;;;;-144.99;100.00;52558.16;5059989;28;19939;-71
2023/03/12 05:14:43;;;;;;;;;;;;;;;-144.99;100.00;52582.63;5049387;28;20025;-70
2023/03/12 05:17:11;;;;;;;;;;;;;;;-144.99;100.00;52545.94;5051756;28;19931;-70
2023/03/12 05:19:38;;;;;;;;;;;;;;;-144.99;100.00;52560.19;5052952;28;19941;-70
2023/03/12 05:22:04;;;;;;;;;;;;;;;-144.99;100.00;52574.47;5061381;28;19939;-69
2023/03/12 05:24:31;;;;;;;;;;;;;;;-144.99;100.00;52566.31;5049926;28;20022;-70
2023/03/12 05:26:57;;;;;;;;;;;;;;;-144.99;100.00;52527.59;5044032;28;19988;-70
2023/03/12 05:29:24;;;;;;;;;;;;;;;-144.99;100.00;52574.47;5033903;28;19950;-69
2023/03/12 05:31:51;;;;;;;;;;;;;;;-144.99;100.00;52545.94;5034562;28;19960;-70
2023/03/12 05:34:19;;;;;;;;;;;;;;;-144.99;100.00;52562.25;5026054;28;20008;-69
2023/03/12 05:36:45;;;;;;;;;;;;;;;-144.99;100.00;52564.28;5026098;28;19995;-70
2023/03/12 05:39:12;;;;;;;;;;;;;;;-144.99;100.00;52541.84;5032959;28;20378;-70
2023/03/12 05:41:38;;;;;;;;;;;;;;;-144.99;100.00;52574.47;5031862;28;19936;-70
2023/03/12 05:44:05;;;;;;;;;;;;;;;-144.99;100.00;52533.69;5030438;28;20069;-71
2023/03/12 05:46:32;;;;;;;;;;;;;;;-144.99;100.00;52541.84;5030829;28;20464;-71
2023/03/12 05:48:58;;;;;;;;;;;;;;;-144.99;100.00;52547.97;5026303;28;19940;-71
2023/03/12 05:51:26;;;;;;;;;;;;;;;-144.99;100.00;52541.84;5032874;28;19966;-71
2023/03/12 05:53:53;;;;;;;;;;;;;;;-144.99;100.00;52527.59;5032179;28;20473;-71
2023/03/12 05:56:19;;;;;;;;;;;;;;;-144.99;100.00;52570.38;5035931;28;19943;-70
2023/03/12 05:58:47;;;;;;;;;;;;;;;-144.99;100.00;52558.16;5022683;28;20011;-69
2023/03/12 06:01:15;;;;;;;;;;;;;;;-144.99;100.00;52576.50;5040924;28;19943;-71
2023/03/12 06:03:42;;;;;;;;;;;;;;;-144.99;100.00;52509.25;5034753;28;19941;-71
2023/03/12 06:06:08;;;;;;;;;;;;;;;-144.99;100.00;52570.38;5023591;28;19965;-71
2023/03/12 06:08:36;;;;;;;;;;;;;;;-144.99;100.00;52525.56;5024393;28;20400;-65
2023/03/12 06:11:03;;;;;;;;;;;;;;;-144.99;100.00;52517.41;5026918;28;20013;-70
2023/03/12 06:13:30;;;;;;;;;;;;;;;-144.99;100.00;52574.47;5028771;28;20321;-70
2023/03/12 06:16:01;;;;;;;;;;;;;;;-144.99;100.00;52501.09;5033584;28;20309;-70
2023/03/12 06:18:27;;;;;;;;;;;;;;;-144.99;100.00;52515.34;5022583;28;19969;-70
2023/03/12 06:20:54;;;;;;;;;;;;;;;-144.99;100.00;52552.03;5029495;28;19989;-70
2023/03/12 06:23:20;;;;;;;;;;;;;;;-144.99;100.00;52537.78;5027915;28;19952;-70
2023/03/12 06:25:48;;;;;;;;;;;;;;;-144.99;100.00;52541.84;5037325;28;19965;-70
2023/03/12 06:28:15;;;;;;;;;;;;;;;-144.99;100.00;52545.94;5037789;28;19940;-71
2023/03/12 06:30:41;;;;;;;;;;;;;;;-144.99;100.00;52517.41;5030904;28;19955;-70
2023/03/12 06:33:08;;;;;;;;;;;;;;;-144.99;100.00;52529.63;5032525;28;19980;-69
2023/03/12 06:35:35;;;;;;;;;;;;;;;-144.99;100.00;52531.66;5032952;28;19968;-70
2023/03/12 06:38:01;;;;;;;;;;;;;;;-144.99;100.00;52519.44;5032752;28;19946;-70
2023/03/12 06:40:28;;;;;;;;;;;;;;;-144.99;100.00;52558.16;5035987;28;19947;-70
2023/03/12 06:42:56;;;;;;;;;;;;;;;-144.99;100.00;52505.16;5017395;28;19946;-73
2023/03/12 06:45:22;;;;;;;;;;;;;;;-144.99;100.00;52545.94;5027247;28;19958;-73
2023/03/12 06:47:49;;;;;;;;;;;;;;;-144.99;100.00;52547.97;5047727;28;19938;-68
2023/03/12 06:50:15;;;;;;;;;;;;;;;-144.99;100.00;52521.47;5049875;28;19946;-68
2023/03/12 06:52:42;;;;;;;;;;;;;;;-144.99;100.00;52517.41;5029102;28;20025;-69
2023/03/12 06:55:09;;;;;;;;;;;;;;;-144.99;100.00;52586.69;5027101;28;19959;-68
2023/03/12 06:57:35;;;;;;;;;;;;;;;-144.99;100.00;52550.00;5015762;28;19964;-68
2023/03/12 07:00:04;;;;;;;;;;;;;;;-144.99;100.00;52521.47;5044539;28;19945;-72
2023/03/12 07:02:30;;;;;;;;;;;;;;;-144.99;100.00;52519.44;5039741;28;19946;-71
2023/03/12 07:04:57;;;;;;;;;;;;;;;-144.99;100.00;52529.63;5028116;28;19959;-71
2023/03/12 07:07:24;;;;;;;;;;;;;;;-144.99;100.00;52525.56;5028242;28;20392;-71
2023/03/12 07:09:50;;;;;;;;;;;;;;;-144.99;100.00;52529.63;5036432;28;19941;-71
2023/03/12 07:12:17;;;;;;;;;;;;;;;-144.99;100.00;52554.09;5038587;28;20048;-71
2023/03/12 07:14:43;;;;;;;;;;;;;;;-144.99;100.00;52554.09;5057078;22;19961;-71
2023/03/12 07:17:11;;;;;;;;;;;;;;;-144.99;100.00;52550.00;5053682;28;19989;-71
2023/03/12 07:19:38;;;;;;;;;;;;;;;-144.99;100.00;52537.78;5052388;28;19961;-73
2023/03/12 07:22:04;;;;;;;;;;;;;;;-144.99;100.00;52533.69;5053397;28;19943;-73
2023/03/12 07:24:31;;;;;;;;;;;;;;;-144.99;100.00;52560.19;5066772;28;19951;-73
2023/03/12 07:26:58;;;;;;;;;;;;;;;-144.99;100.00;52550.00;5058434;28;20421;-74
2023/03/12 07:29:24;;;;;;;;;;;;;;;-144.99;100.00;52517.41;5053059;28;20166;-72
2023/03/12 07:31:51;;;;;;;;;;;;;;;-144.99;100.00;52523.50;5052379;28;20065;-72
2023/03/12 07:34:19;;;;;;;;;;;;;;;-144.99;100.00;52490.91;5054207;28;20488;-72
2023/03/12 07:36:45;;;;;;;;;;;;;;;-144.99;100.00;52558.16;5044131;28;19941;-72
2023/03/12 07:39:12;;;;;;;;;;;;;;;-144.99;100.00;52501.09;5055422;28;20352;-72
2023/03/12 07:41:39;;;;;;;;;;;;;;;-144.99;100.00;52584.66;5051370;28;19973;-72
2023/03/12 07:44:05;;;;;;;;;;;;;;;-144.99;100.00;52525.56;5060192;28;19929;-72
2023/03/12 07:46:32;;;;;;;;;;;;;;;-144.99;99.54;52554.09;5045839;28;20436;-71
2023/03/12 07:48:58;;;;;;;;;;;;;;;-144.99;99.55;52513.31;5054916;28;19973;-70
2023/03/12 07:51:26;;;;;;;;;;;;;;;-144.99;98.86;52509.25;5052408;28;19962;-70
2023/03/12 07:53:53;;;;;;;;;;;;;;;-144.99;97.31;52509.25;5052002;28;19982;-70
2023/03/12 07:56:19;;;;;;;;;;;;;;;-144.99;97.46;52533.69;5051040;28;19925;-66
2023/03/12 07:58:46;;;;;;;;;;;;;;;-144.99;97.01;52507.19;5052832;28;20451;-67
2023/03/12 08:01:12;;;;;;;;;;;;;;;-144.99;95.92;52497.00;5052591;28;20014;-66
2023/03/12 08:03:39;;;;;;;;;;;;;;;-144.99;94.74;52525.56;5048658;28;19985;-67
2023/03/12 08:06:06;;;;;;;;;;;;;;;-144.99;94.00;52541.84;5054749;28;20358;-66
2023/03/12 08:08:34;;;;;;;;;;;;;;;-144.99;93.20;52503.13;5049101;28;19993;-68
2023/03/12 08:11:01;;;;;;;;;;;;;;;-144.99;93.94;52521.47;5051151;28;19942;-68
2023/03/12 08:13:28;;;;;;;;;;;;;;;-144.99;93.89;52509.25;5050426;28;20458;-68
2023/03/12 08:15:54;;;;;;;;;;;;;;;-144.99;92.67;52513.31;5055676;28;19963;-69
2023/03/12 08:18:21;;;;;;;;;;;;;;;-144.99;92.52;52501.09;5050547;28;19947;-68
2023/03/12 08:20:50;;;;;;;;;;;;;;;-144.99;92.80;52503.13;5043115;28;20313;-69
2023/03/12 08:23:16;;;;;;;;;;;;;;;-144.99;92.48;52472.56;5051090;28;20058;-69
2023/03/12 08:25:46;;;;;;;;;;;;;;;-144.99;91.75;52521.47;5056719;28;19963;-69
2023/03/12 08:28:13;;;;;;;;;;;;;;;-144.99;92.45;52562.25;5049705;28;19925;-70
2023/03/12 08:30:39;;;;;;;;;;;;;;;-144.99;91.44;52501.09;5051005;28;19968;-70
2023/03/12 08:33:06;;;;;;;;;;;;;;;-144.99;91.72;52562.25;5053579;28;20010;-70
2023/03/12 08:35:32;;;;;;;;;;;;;;;-144.99;91.26;52519.44;5053908;28;20006;-69
2023/03/12 08:37:59;;;;;;;;;;;;;;;-144.99;90.30;52505.16;5049871;28;19950;-70
2023/03/12 08:40:26;;;;;;;;;;;;;;;-144.99;91.66;52476.63;5045583;28;19999;-69
2023/03/12 08:42:54;;;;;;;;;;;;;;;-144.99;90.46;52505.16;5051472;28;19941;-69
2023/03/12 08:45:21;;;;;;;;;;;;;;;-144.99;90.31;52509.25;5053629;28;19929;-68
2023/03/12 08:47:48;;;;;;;;;;;;;;;-144.99;91.00;52513.31;5047780;28;20010;-70
2023/03/12 08:50:15;;;;;;;;;;;;;;;-144.99;89.63;52480.72;5048975;28;20037;-70
2023/03/12 08:52:42;;;;;;;;;;;;;;;-144.99;89.97;52529.63;5050029;28;19960;-71
2023/03/12 08:55:09;;;;;;;;;;;;;;;-144.99;89.17;52456.25;5045877;28;19958;-69
2023/03/12 08:57:36;;;;;;;;;;;;;;;-144.99;88.85;52503.13;5050728;28;20436;-71
2023/03/12 09:00:06;;;;;;;;;;;;;;;-144.99;89.68;52505.16;5047638;28;19948;-71
2023/03/12 09:02:33;;;;;;;;;;;;;;;-144.99;89.59;52541.84;5047776;28;20043;-70
2023/03/12 09:05:00;;;;;;;;;;;;;;;-144.99;88.73;52537.78;5050534;28;20048;-70
2023/03/12 09:07:26;;;;;;;;;;;;;;;-144.99;88.39;52558.16;5055604;28;19999;-70
2023/03/12 09:09:54;;;;;;;;;;;;;;;-144.99;88.16;52501.09;5056232;28;20001;-70
2023/03/12 09:12:21;;;;;;;;;;;;;;;-144.99;88.23;52497.00;5042737;28;19965;-70
2023/03/12 09:14:48;;;;;;;;;;;;;;;-144.99;88.10;52509.25;5050310;28;20308;-69
2023/03/12 09:17:15;;;;;;;;;;;;;;;-144.99;87.35;52480.72;5050878;28;20020;-70
2023/03/12 09:19:42;;;;;;;;;;;;;;;-144.99;86.61;52501.09;5053476;28;19983;-70
2023/03/12 09:22:09;;;;;;;;;;;;;;;-144.99;86.38;52521.47;5045452;28;20228;-68
2023/03/12 09:24:35;;;;;;;;;;;;;;;-144.99;85.36;52509.25;5043633;28;19956;-66
2023/03/12 09:27:03;;;;;;;;;;;;;;;-144.99;84.73;52444.03;5050501;28;20347;-66
2023/03/12 09:29:29;;;;;;;;;;;;;;;-144.99;84.52;52476.63;5050866;28;19941;-67
2023/03/12 09:31:56;;;;;;;;;;;;;;;-144.99;83.15;52519.44;5049665;28;20007;-67
2023/03/12 09:34:24;;;;;;;;;;;;;;;-144.99;82.53;52476.63;5052308;28;20581;-68
2023/03/12 09:36:51;;;;;;;;;;;;;;;-144.99;81.88;52497.00;5046223;28;19937;-69
2023/03/12 09:39:19;;;;;;;;;;;;;;;-144.99;82.50;52478.66;5044799;28;19968;-63
2023/03/12 09:41:47;;;;;;;;;;;;;;;-144.99;80.80;52541.84;5052544;28;20459;-66
2023/03/12 09:44:18;;;;;;;;;;;;;;;-144.99;79.84;52435.88;5041939;28;20059;-65
2023/03/12 09:46:48;;;;;;;;;;;;;;;-144.99;78.83;52503.13;5049126;28;20006;-66
2023/03/12 09:49:18;;;;;;;;;;;;;;;-144.99;79.07;52480.72;5049211;28;19952;-67
2023/03/12 09:51:48;;;;;;;;;;;;;;;-144.99;78.51;52480.72;5049509;28;20020;-66
2023/03/12 09:54:21;;;;;;;;;;;;;;;-144.99;78.96;52525.56;5046450;28;19967;-66
2023/03/12 09:56:49;;;;;;;;;;;;;;;-144.99;78.70;52476.63;5042235;28;19951;-66
2023/03/12 09:59:15;;;;;;;;;;;;;;;-144.99;78.01;52497.00;5050725;28;19998;-66
2023/03/12 10:01:43;;;;;;;;;;;;;;;-144.99;77.69;52480.72;5049517;28;19938;-66
2023/03/12 10:04:18;;;;;;;;;;;;;;;-144.99;76.40;52486.81;5047725;28;20011;-66
2023/03/12 10:06:49;;;;;;;;;;;;;;;-144.99;77.68;52492.94;5049400;28;19995;-67
2023/03/12 10:09:29;;;;;;;;;;;;;;;-144.99;76.82;52484.78;5047884;28;19987;-67
2023/03/12 10:11:59;;;;;;;;;;;;;;;-144.99;75.92;52452.16;5048144;28;20025;-66
2023/03/12 10:14:34;;;;;;;;;;;;;;;-144.99;74.94;52470.50;5049038;28;19966;-66
2023/03/12 10:17:12;;;;;;;;;;;;;;;-144.99;74.31;52468.47;5049100;28;19942;-64
2023/03/12 10:19:46;;;;;;;;;;;;;;;-144.99;73.85;52476.63;5041142;28;20033;-64
2023/03/12 10:22:25;;;;;;;;;;;;;;;-144.99;73.25;52472.56;5043012;28;19946;-64
2023/03/12 10:24:57;;;;;;;;;;;;;;;-144.99;72.41;52533.69;5046457;28;20015;-66
2023/03/12 10:27:25;;;;;;;;;;;;;;;-144.99;72.53;52497.00;5048366;28;19945;-65
2023/03/12 10:29:53;;;;;;;;;;;;;;;-144.99;73.20;52509.25;5047983;28;20293;-65
2023/03/12 10:32:21;;;;;;;;;;;;;;;-144.99;73.58;52509.25;5048679;28;20022;-65
2023/03/12 10:34:50;;;;;;;;;;;;;;;-144.99;73.40;52466.44;5041505;28;20005;-65
2023/03/12 10:37:21;;;;;;;;;;;;;;;-144.99;72.75;52501.09;5046444;28;19965;-64
2023/03/12 10:39:47;;;;;;;;;;;;;;;-144.99;72.93;52488.84;5046847;28;20406;-65
2023/03/12 10:42:16;;;;;;;;;;;;;;;-144.99;72.57;52511.28;5048922;28;19997;-66
2023/03/12 10:44:43;;;;;;;;;;;;;;;-144.99;72.31;52517.41;5046669;28;20011;-66
2023/03/12 10:47:20;;;;;;;;;;;;;;;-144.99;72.63;52537.78;5051722;28;20347;-65
2023/03/12 10:49:49;;;;;;;;;;;;;;;-144.99;72.58;52513.31;5044077;28;19943;-65
2023/03/12 10:52:18;;;;;;;;;;;;;;;-144.99;72.77;52492.94;5046258;28;20502;-65
2023/03/12 10:54:46;;;;;;;;;;;;;;;-144.99;72.34;52503.13;5047382;28;19957;-65
2023/03/12 10:57:14;;;;;;;;;;;;;;;-144.99;73.33;52472.56;5041982;28;20399;-65
2023/03/12 10:59:41;;;;;;;;;;;;;;;-144.99;72.35;52517.41;5048748;28;21162;-64
2023/03/12 11:02:23;;;;;;;;;;;;;;;-144.99;72.49;52533.69;5042097;28;20417;-64
2023/03/12 11:04:50;;;;;;;;;;;;;;;-144.99;72.58;52499.06;5037229;28;19959;-65
2023/03/12 11:07:25;;;;;;;;;;;;;;;-144.99;72.26;52505.16;5043880;28;20012;-65
2023/03/12 11:10:10;;;;;;;;;;;;;;;-144.99;72.37;52517.41;5042893;28;19938;-66
2023/03/12 11:12:38;;;;;;;;;;;;;;;-144.99;71.94;52513.31;5040869;28;20045;-65
2023/03/12 11:15:18;;;;;;;;;;;;;;;-144.99;71.54;52503.13;5048842;28;20036;-65
2023/03/12 11:17:45;;;;;;;;;;;;;;;-144.99;71.17;52515.34;5035635;28;19945;-65
2023/03/12 11:20:18;;;;;;;;;;;;;;;-144.99;70.66;52529.63;5041477;28;20047;-67
2023/03/12 11:22:46;;;;;;;;;;;;;;;-144.99;71.08;52509.25;5045648;28;20344;-64
2023/03/12 11:25:20;;;;;;;;;;;;;;;-144.99;71.40;52511.28;5041281;28;20058;-65
2023/03/12 11:27:49;;;;;;;;;;;;;;;-144.99;71.23;52529.63;5041814;28;19931;-65
2023/03/12 11:30:17;;;;;;;;;;;;;;;-144.99;71.71;52519.44;5043465;28;19928;-66
2023/03/12 11:32:45;;;;;;;;;;;;;;;-144.99;71.23;52513.31;5045341;28;19933;-65
2023/03/12 11:35:13;;;;;;;;;;;;;;;-144.99;70.76;52507.19;5040653;28;19928;-67
2023/03/12 11:37:45;;;;;;;;;;;;;;;-144.99;70.86;52531.66;5040888;28;19987;-66
2023/03/12 11:40:26;;;;;;;;;;;;;;;-144.99;70.87;52529.63;5049831;28;19929;-66
2023/03/12 11:42:59;;;;;;;;;;;;;;;-144.99;70.89;52537.78;5046179;28;20324;-66
2023/03/12 11:45:28;;;;;;;;;;;;;;;-144.99;71.60;52505.16;5038029;28;19992;-67
2023/03/12 11:47:59;;;;;;;;;;;;;;;-144.99;71.44;52492.94;5047967;28;19990;-66
2023/03/12 11:50:28;;;;;;;;;;;;;;;-144.99;72.11;52517.41;5044770;28;19928;-65
2023/03/12 11:53:01;;;;;;;;;;;;;;;-144.99;72.02;52521.47;5048418;28;20256;-66
2023/03/12 11:55:42;;;;;;;;;;;;;;;-144.99;72.08;52529.63;5049080;28;20286;-67
2023/03/12 11:58:27;;;;;;;;;;;;;;;-144.99;72.40;52517.41;5046401;28;19928;-67
2023/03/12 12:00:57;;;;;;;;;;;;;;;-144.99;72.91;52497.00;5050573;28;19982;-67
2023/03/12 12:03:34;;;;;;;;;;;;;;;-144.99;73.38;52580.59;5046999;28;20539;-65
2023/03/12 12:06:03;;;;;;;;;;;;;;;-144.99;73.65;52503.13;5045459;28;20011;-65
2023/03/12 12:08:38;;;;;;;;;;;;;;;-144.99;74.69;52505.16;5046185;28;19929;-66
2023/03/12 12:11:10;;;;;;;;;;;;;;;-144.99;75.03;52509.25;5043905;28;19928;-66
2023/03/12 12:13:44;;;;;;;;;;;;;;;-144.99;75.13;52537.78;5048795;28;20215;-66
2023/03/12 12:16:22;;;;;;;;;;;;;;;-144.99;75.75;52545.94;5047960;28;19925;-66
2023/03/12 12:18:56;;;;;;;;;;;;;;;-144.99;75.21;52578.53;5046131;28;19964;-65
2023/03/12 12:21:31;;;;;;;;;;;;;;;-144.99;75.65;52488.84;5042393;28;19986;-66
2023/03/12 12:24:01;;;;;;;;;;;;;;;-144.99;76.18;52533.69;5042430;28;19956;-67
2023/03/12 12:26:32;;;;;;;;;;;;;;;-144.99;75.63;52527.59;5041191;28;20447;-67